Flight Track Log - Related Links

Times and Time Zones

All times are in EDT time to prevent confusion due to time zone crossing. See the SKW5564 flight status page for this flight to view local times or setup timezone preferences in your user account.

Time Position Orientation Groundspeed Altitude Reporting Facility
EDT Latitude Longitude Course Direction KTS MPH feet Rate Location/Type
Mon 01:25:00 PM 41.4064 -87.6379 161° South  Level Estimated
Mon 01:26:00 PM 41.3242 -87.6000 161° South  Level Estimated
Mon 01:27:00 PM 41.2419 -87.5620 161° South  Level Estimated
Mon 01:28:00 PM 41.1597 -87.5242 161° South  Level Estimated
Mon 01:29:00 PM 41.0774 -87.4865 161° South  Level Estimated
Mon 01:30:00 PM 40.9952 -87.4489 161° South  Level Estimated
Mon 01:31:00 PM 40.9129 -87.4114 161° South  Level Estimated
Mon 01:32:00 PM 40.8306 -87.3740 161° South  Level Estimated
Mon 01:33:00 PM 40.7482 -87.3366 161° South  Level Estimated
Mon 01:34:00 PM 40.6659 -87.2994 161° South  Level Estimated
Mon 01:35:00 PM 40.5836 -87.2622 161° South  Level Estimated
Mon 01:36:00 PM 40.5012 -87.2252 161° South  Level Estimated
Mon 01:37:00 PM 40.4189 -87.1882 161° South  Level Estimated
Mon 01:38:00 PM 40.3365 -87.1513 161° South  Level Estimated
Mon 01:39:00 PM 40.2541 -87.1145 161° South  Level Estimated
Mon 01:40:00 PM 40.1717 -87.0778 161° South  Level Estimated
Mon 01:41:00 PM 40.0893 -87.0412 161° South  Level Estimated
Mon 01:42:00 PM 40.0069 -87.0047 161° South  Level Estimated
Mon 01:43:00 PM 39.9245 -86.9682 161° South  Level Estimated
Mon 01:44:00 PM 39.8420 -86.9319 161° South  Level Estimated
Mon 01:45:00 PM 39.7596 -86.8956 161° South  Level Estimated
Mon 01:46:00 PM 39.6771 -86.8595 161° South  Level Estimated
Mon 01:47:00 PM 39.5946 -86.8234 161° South  Level Estimated
Mon 01:48:00 PM 39.5121 -86.7874 161° South  Level Estimated
Mon 01:49:00 PM 39.4296 -86.7514 161° South  Level Estimated
Mon 01:50:00 PM 39.3471 -86.7156 161° South  Level Estimated
Mon 01:51:00 PM 39.2646 -86.6799 161° South  Level Estimated
Mon 01:52:00 PM 39.1821 -86.6442 161° South  Level Estimated
Mon 01:53:00 PM 39.0995 -86.6086 162° South  Level Estimated
Mon 01:54:00 PM 39.0170 -86.5731 162° South  Level Estimated
Mon 01:55:00 PM 38.9344 -86.5377 162° South  Level Estimated
Mon 01:56:00 PM 38.8519 -86.5024 162° South  Level Estimated
Mon 01:57:00 PM 38.7693 -86.4671 162° South  Level Estimated
Mon 01:58:00 PM 38.6867 -86.4320 162° South  Level Estimated
Mon 01:59:00 PM 38.6041 -86.3969 162° South  Level Estimated
Mon 02:00:00 PM 38.5215 -86.3619 162° South  Level Estimated
Mon 02:01:00 PM 38.4388 -86.3269 162° South  Level Estimated
Mon 02:02:00 PM 38.3562 -86.2921 162° South  Level Estimated
Mon 02:03:00 PM 38.2735 -86.2573 162° South  Level Estimated
Mon 02:04:00 PM 38.1909 -86.2226 162° South  Level Estimated
Mon 02:05:00 PM 38.1082 -86.1880 162° South  Level Estimated
Mon 02:06:00 PM 38.0255 -86.1535 162° South  Level Estimated
Mon 02:07:00 PM 37.9428 -86.1190 162° South  Level Estimated
Mon 02:08:00 PM 37.8601 -86.0846 162° South  Level Estimated
Mon 02:09:00 PM 37.7774 -86.0503 162° South  Level Estimated
Mon 02:10:00 PM 37.6947 -86.0161 162° South  Level Estimated
Mon 02:11:00 PM 37.6120 -85.9820 162° South  Level Estimated
Mon 02:12:00 PM 37.5292 -85.9479 162° South  Level Estimated
Mon 02:13:00 PM 37.4465 -85.9139 162° South  Level Estimated
Mon 02:14:00 PM 37.3637 -85.8800 162° South  Level Estimated
Mon 02:15:00 PM 37.2810 -85.8461 162° South  Level Estimated
Mon 02:16:00 PM 37.1982 -85.8124 162° South  Level Estimated
Mon 02:17:00 PM 37.1154 -85.7787 162° South  Level Estimated
Mon 02:18:00 PM 37.0326 -85.7450 162° South  Level Estimated
Mon 02:19:00 PM 36.9498 -85.7115 162° South  Level Estimated
Mon 02:20:00 PM 36.8670 -85.6780 162° South  Level Estimated
Mon 02:21:00 PM 36.7842 -85.6446 162° South  Level Estimated
Mon 02:22:00 PM 36.7013 -85.6113 162° South  Level Estimated
Mon 02:23:00 PM 36.6185 -85.5780 162° South  Level Estimated
Mon 02:24:00 PM 36.5356 -85.5448 162° South  Level Estimated
Mon 02:25:00 PM 36.4528 -85.5117 162° South  Level Estimated
Mon 02:26:00 PM 36.3699 -85.4787 162° South  Level Estimated
Mon 02:27:00 PM 36.2870 -85.4457 162° South  Level Estimated
Mon 02:28:00 PM 36.2042 -85.4128 162° South  Level Estimated
Mon 02:29:00 PM 36.1213 -85.3799 162° South  Level Estimated
Mon 02:30:00 PM 36.0383 -85.3472 162° South  Level Estimated
Mon 02:31:00 PM 35.9554 -85.3145 162° South  Level Estimated
Mon 02:32:00 PM 35.8725 -85.2818 162° South  Level Estimated
Mon 02:33:00 PM 35.7896 -85.2493 162° South  Level Estimated
Mon 02:34:00 PM 35.7066 -85.2168 162° South  Level Estimated
Mon 02:35:00 PM 35.6237 -85.1844 162° South  Level Estimated
Mon 02:36:00 PM 35.5407 -85.1520 162° South  Level Estimated
Mon 02:37:00 PM 35.4578 -85.1197 162° South  Level Estimated
Mon 02:38:00 PM 35.3748 -85.0875 162° South  Level Estimated
Mon 02:39:00 PM 35.2918 -85.0553 162° South  Level Estimated
Mon 02:40:00 PM 35.2088 -85.0232 162° South  Level Estimated
Mon 02:41:00 PM 35.1258 -84.9912 162° South  Level Estimated
Mon 02:42:00 PM 35.0428 -84.9592 163° South  Level Estimated
Mon 02:43:00 PM 34.9598 -84.9273 163° South  Level Estimated
Mon 02:44:00 PM 34.8768 -84.8955 163° South  Level Estimated
Mon 02:45:00 PM 34.7937 -84.8637 163° South  Level Estimated
Mon 02:46:00 PM 34.7107 -84.8320 163° South  Level Estimated
Mon 02:47:00 PM 34.6276 -84.8004 163° South  Level Estimated
Mon 02:48:00 PM 34.5446 -84.7688 163° South  Level Estimated
Mon 02:49:00 PM 34.4615 -84.7373 163° South  Level Estimated
Mon 02:50:00 PM 34.3784 -84.7058 163° South  Level Estimated
Mon 02:51:00 PM 34.2953 -84.6745 163° South  Level Estimated
Mon 02:52:00 PM 34.2123 -84.6431 163° South  Level Estimated
Mon 02:53:00 PM 34.1292 -84.6118 163° South  Level Estimated
Mon 02:54:00 PM 34.0461 -84.5806 163° South  Level Estimated
Mon 02:55:00 PM 33.9629 -84.5495 163° South  Level Estimated
Mon 02:56:00 PM 33.8798 -84.5184 163° South  Level Estimated
Mon 02:57:00 PM 33.7967 -84.4874 163° South  Level Estimated
Mon 02:58:00 PM 33.7136 -84.4564 163° South  Level Estimated
Mon 02:59:00 PM 33.6367 -84.4279 163° South  Level Estimated
Mon 03:00:00 PM 33.6367 -84.4279 261° West  Level Estimated
Mon 03:01:00 PM 33.6367 -84.4279 261° West  Level Estimated
Mon 03:02:00 PM 33.6367 -84.4279 261° West  Level Estimated
Mon 03:03:00 PM 33.6367 -84.4279 261° West  Level Estimated
Mon 03:04:00 PM 33.6367 -84.4279 261° West  Level Estimated
Mon 03:05:00 PM 33.6367 -84.4279 261° West  Level Estimated
Mon 03:06:00 PM 33.6367 -84.4279 261° West  Level Estimated
Mon 03:07:00 PM 33.6367 -84.4279 261° West  Level Estimated
Mon 03:08:00 PM 33.6367 -84.4279 261° West  Level Estimated
Mon 03:09:00 PM 33.6367 -84.4279 261° West  Level Estimated
Mon 03:10:00 PM 33.6367 -84.4279 261° West  Level Estimated
Mon 03:11:00 PM 33.6367 -84.4279 261° West  Level Estimated
Mon 03:12:00 PM 33.6367 -84.4279 261° West  Level Estimated
Mon 03:13:00 PM 33.6367 -84.4279 261° West  Level Estimated
Mon 03:14:00 PM 33.6367 -84.4279 261° West  Level Estimated
Mon 03:15:00 PM 33.6367 -84.4279 261° West  Level Estimated

Login

Don't have an account? Register now (free) for customized features, flight alerts, and more!